Time;durP1;ratioP1;P1;durP2;ratioP2;P2;SDS_P1;SDS_P2;PMS_P1;PMS_P2;Temp;Humidity;BMP_temperature;BMP_pressure;BME280_temperature;BME280_humidity;BME280_pressure;Samples;Min_cycle;Max_cycle;Signal;HPM_P1;HPM_P2
2022/03/20 00:02:28;;;;;;;;;;;;;;;8.01;23.60;102209.87;4443251;32;19993;-71
2022/03/20 00:04:55;;;;;;;;;;;;;;;8.03;23.80;102212.53;4443648;32;20325;-71
2022/03/20 00:07:22;;;;;;;;;;;;;;;7.98;23.76;102203.63;4443432;32;19988;-71
2022/03/20 00:09:52;;;;;;;;;;;;;;;7.91;23.70;102210.97;4444157;32;19976;-71
2022/03/20 00:12:19;;;;;;;;;;;;;;;7.99;23.50;102213.16;4443243;32;19995;-71
2022/03/20 00:14:46;;;;;;;;;;;;;;;7.81;23.70;102207.69;4413260;32;20015;-71
2022/03/20 00:17:14;;;;;;;;;;;;;;;7.74;23.57;102210.66;4429729;32;20022;-71
2022/03/20 00:19:41;;;;;;;;;;;;;;;7.90;23.43;102211.75;4443396;32;20704;-71
2022/03/20 00:22:08;;;;;;;;;;;;;;;7.81;23.71;102208.56;4441158;32;20648;-71
2022/03/20 00:24:35;;;;;;;;;;;;;;;7.76;23.97;102215.12;4442587;32;19991;-71
2022/03/20 00:27:02;;;;;;;;;;;;;;;7.71;23.93;102205.28;4442926;32;19980;-71
2022/03/20 00:29:28;;;;;;;;;;;;;;;7.79;23.86;102207.59;4442202;32;20377;-71
2022/03/20 00:31:56;;;;;;;;;;;;;;;7.77;23.86;102210.84;4442290;32;19997;-71
2022/03/20 00:34:23;;;;;;;;;;;;;;;7.71;23.71;102211.34;4443166;32;19992;-71
2022/03/20 00:36:51;;;;;;;;;;;;;;;7.69;23.87;102202.63;4443438;32;19989;-70
2022/03/20 00:39:17;;;;;;;;;;;;;;;7.79;23.77;102207.59;4442936;32;20022;-71
2022/03/20 00:41:44;;;;;;;;;;;;;;;7.76;23.78;102204.81;4443572;32;19992;-71
2022/03/20 00:44:11;;;;;;;;;;;;;;;7.79;23.46;102205.00;4443528;32;20796;-71
2022/03/20 00:46:38;;;;;;;;;;;;;;;7.80;23.49;102205.91;4442847;32;20028;-71
2022/03/20 00:49:05;;;;;;;;;;;;;;;7.68;23.86;102211.12;4443301;32;20816;-70
2022/03/20 00:51:32;;;;;;;;;;;;;;;7.69;23.86;102207.78;4443769;32;20005;-71
2022/03/20 00:53:59;;;;;;;;;;;;;;;7.24;24.30;102206.47;4443069;32;19985;-71
2022/03/20 00:56:26;;;;;;;;;;;;;;;7.48;24.17;102201.22;4441603;32;19989;-71
2022/03/20 00:58:53;;;;;;;;;;;;;;;7.50;24.08;102204.75;4443635;32;19988;-70
2022/03/20 01:01:20;;;;;;;;;;;;;;;7.57;24.42;102199.25;4443503;32;20403;-70
2022/03/20 01:03:47;;;;;;;;;;;;;;;7.30;24.47;102200.84;4442752;32;19982;-71
2022/03/20 01:06:14;;;;;;;;;;;;;;;7.26;24.85;102199.75;4441527;32;20126;-72
2022/03/20 01:08:40;;;;;;;;;;;;;;;7.12;25.26;102200.53;4405238;32;19992;-71
2022/03/20 01:11:07;;;;;;;;;;;;;;;7.35;24.86;102190.09;4441528;32;19993;-71
2022/03/20 01:13:35;;;;;;;;;;;;;;;7.43;24.78;102193.16;4445346;32;20007;-70
2022/03/20 01:16:02;;;;;;;;;;;;;;;7.09;25.16;102190.91;4445046;32;20018;-70
2022/03/20 01:18:29;;;;;;;;;;;;;;;7.14;25.03;102193.78;4445570;32;19969;-70
2022/03/20 01:20:56;;;;;;;;;;;;;;;6.86;25.50;102191.91;4443235;32;20752;-71
2022/03/20 01:23:23;;;;;;;;;;;;;;;6.79;25.76;102194.84;4445858;32;19993;-71
2022/03/20 01:25:50;;;;;;;;;;;;;;;6.81;25.81;102193.28;4444785;32;19988;-71
2022/03/20 01:28:17;;;;;;;;;;;;;;;6.76;25.74;102199.75;4445083;32;20017;-71
2022/03/20 01:30:45;;;;;;;;;;;;;;;6.84;25.64;102202.87;4446117;32;20004;-71
2022/03/20 01:33:12;;;;;;;;;;;;;;;6.65;26.04;102205.88;4445535;32;19996;-71
2022/03/20 01:35:39;;;;;;;;;;;;;;;6.85;25.82;102200.41;4445252;32;19989;-70
2022/03/20 01:38:06;;;;;;;;;;;;;;;6.86;25.92;102212.50;4445685;32;20597;-71
2022/03/20 01:40:34;;;;;;;;;;;;;;;6.78;25.98;102208.50;4445558;32;20508;-73
2022/03/20 01:43:01;;;;;;;;;;;;;;;6.73;25.97;102223.63;4445178;32;19989;-72
2022/03/20 01:45:28;;;;;;;;;;;;;;;6.29;26.91;102225.63;4444121;32;20335;-72
2022/03/20 01:47:55;;;;;;;;;;;;;;;6.38;26.87;102221.16;4441592;32;19973;-70
2022/03/20 01:50:25;;;;;;;;;;;;;;;6.36;26.76;102233.00;4445101;32;19997;-70
2022/03/20 01:52:53;;;;;;;;;;;;;;;6.22;27.08;102223.37;4445534;32;20004;-71
2022/03/20 01:55:21;;;;;;;;;;;;;;;6.18;27.16;102226.53;4445347;32;20038;-73
2022/03/20 01:57:49;;;;;;;;;;;;;;;6.12;27.26;102232.12;4430570;32;19981;-73
2022/03/20 02:00:16;;;;;;;;;;;;;;;6.24;27.18;102234.69;4447394;32;20023;-70
2022/03/20 02:02:43;;;;;;;;;;;;;;;6.04;27.52;102244.44;4444909;32;20797;-71
2022/03/20 02:05:11;;;;;;;;;;;;;;;6.22;27.44;102233.66;4445345;32;20015;-72
2022/03/20 02:07:38;;;;;;;;;;;;;;;6.29;27.29;102241.06;4447076;32;20018;-71
2022/03/20 02:10:06;;;;;;;;;;;;;;;6.22;27.33;102244.88;4441549;32;19989;-70
2022/03/20 02:12:34;;;;;;;;;;;;;;;6.25;27.53;102239.03;4445201;32;20262;-71
2022/03/20 02:15:01;;;;;;;;;;;;;;;6.04;27.66;102243.53;4402227;32;20001;-70
2022/03/20 02:17:30;;;;;;;;;;;;;;;5.91;27.82;102252.00;4459853;32;19996;-71
2022/03/20 02:19:57;;;;;;;;;;;;;;;6.11;27.70;102250.00;4453256;32;20030;-71
2022/03/20 02:22:24;;;;;;;;;;;;;;;6.01;27.91;102249.34;4443897;32;19978;-70
2022/03/20 02:24:51;;;;;;;;;;;;;;;5.93;28.27;102247.88;4430972;32;20045;-69
2022/03/20 02:27:23;;;;;;;;;;;;;;;5.92;28.18;102253.78;4430614;32;19969;-69
2022/03/20 02:29:54;;;;;;;;;;;;;;;5.84;28.34;102249.75;4437031;32;20030;-70
2022/03/20 02:32:28;;;;;;;;;;;;;;;5.75;28.40;102254.22;4417276;32;20033;-69
2022/03/20 02:34:56;;;;;;;;;;;;;;;5.66;28.70;102253.53;4432163;32;19989;-69
2022/03/20 02:37:23;;;;;;;;;;;;;;;5.73;28.55;102245.47;4444840;32;20678;-70
2022/03/20 02:39:51;;;;;;;;;;;;;;;5.62;28.82;102256.66;4450787;32;19997;-69
2022/03/20 02:42:17;;;;;;;;;;;;;;;5.52;28.98;102250.81;4433494;32;19984;-70
2022/03/20 02:44:48;;;;;;;;;;;;;;;5.48;29.22;102248.78;4433297;32;19992;-70
2022/03/20 02:47:19;;;;;;;;;;;;;;;5.16;29.81;102253.16;4446176;32;19986;-69
2022/03/20 02:49:48;;;;;;;;;;;;;;;4.95;30.17;102258.44;4451892;32;19986;-69
2022/03/20 02:52:15;;;;;;;;;;;;;;;5.09;30.20;102256.94;4431181;32;19989;-69
2022/03/20 02:54:42;;;;;;;;;;;;;;;5.15;30.01;102259.09;4430998;32;20020;-70
2022/03/20 02:57:09;;;;;;;;;;;;;;;5.01;30.33;102266.63;4444605;32;20004;-70
2022/03/20 02:59:36;;;;;;;;;;;;;;;5.00;30.40;102269.94;4430440;32;19989;-70
2022/03/20 03:02:02;;;;;;;;;;;;;;;5.10;30.28;102276.69;4444176;32;20008;-71
2022/03/20 03:04:30;;;;;;;;;;;;;;;5.11;30.17;102281.94;4451490;32;19981;-71
2022/03/20 03:07:00;;;;;;;;;;;;;;;5.26;30.06;102271.06;4450127;32;20397;-70
2022/03/20 03:12:13;;;;;;;;;;;;;;;5.54;29.71;102277.50;4429088;32;20458;-71
2022/03/20 03:17:29;;;;;;;;;;;;;;;5.40;30.01;102291.00;4429631;32;20008;-71
2022/03/20 03:19:56;;;;;;;;;;;;;;;5.36;30.03;102299.25;4446341;32;20757;-70
2022/03/20 03:22:26;;;;;;;;;;;;;;;5.39;30.21;102299.44;4444598;32;19989;-70
2022/03/20 03:24:54;;;;;;;;;;;;;;;5.49;29.95;102296.84;4430832;32;19993;-71
2022/03/20 03:27:21;;;;;;;;;;;;;;;5.58;29.83;102301.75;4442888;32;19977;-71
2022/03/20 03:29:48;;;;;;;;;;;;;;;5.43;30.06;102310.88;4448630;32;19985;-71
2022/03/20 03:32:15;;;;;;;;;;;;;;;5.24;30.34;102319.72;4460662;32;20329;-71
2022/03/20 03:37:28;;;;;;;;;;;;;;;5.04;30.79;102318.19;4455554;32;20337;-71
2022/03/20 03:39:55;;;;;;;;;;;;;;;5.00;30.99;102323.84;4460070;32;19981;-70
2022/03/20 03:42:21;;;;;;;;;;;;;;;4.87;31.33;102319.41;4459793;32;20064;-71
2022/03/20 03:44:49;;;;;;;;;;;;;;;4.98;31.23;102329.62;4447662;32;19984;-72
2022/03/20 03:47:16;;;;;;;;;;;;;;;5.03;31.11;102334.34;4450889;32;20015;-71
2022/03/20 03:49:42;;;;;;;;;;;;;;;4.90;31.30;102337.63;4443027;32;19985;-71
2022/03/20 03:52:14;;;;;;;;;;;;;;;4.82;31.46;102345.50;4444232;32;19977;-71
2022/03/20 03:54:41;;;;;;;;;;;;;;;4.82;31.67;102353.22;4444285;32;19986;-71
2022/03/20 03:57:08;;;;;;;;;;;;;;;4.87;31.52;102351.87;4444362;32;20373;-71
2022/03/20 03:59:36;;;;;;;;;;;;;;;4.74;31.92;102350.00;4442378;32;20357;-71
2022/03/20 04:02:04;;;;;;;;;;;;;;;4.62;32.02;102343.91;4444395;32;19985;-71
2022/03/20 04:04:31;;;;;;;;;;;;;;;4.60;32.26;102346.34;4442614;32;20003;-71
2022/03/20 04:06:58;;;;;;;;;;;;;;;4.76;32.03;102355.28;4442980;32;19981;-71
2022/03/20 04:09:25;;;;;;;;;;;;;;;4.77;31.75;102362.19;4134279;32;10000193;-71
2022/03/20 04:11:52;;;;;;;;;;;;;;;4.83;31.80;102362.69;4429972;32;20000;-71
2022/03/20 04:14:20;;;;;;;;;;;;;;;4.88;31.79;102361.38;4444197;32;19989;-71
2022/03/20 04:16:47;;;;;;;;;;;;;;;4.83;31.83;102365.25;4443362;32;19993;-71
2022/03/20 04:19:14;;;;;;;;;;;;;;;4.89;31.87;102365.75;4443945;32;20003;-72
2022/03/20 04:21:40;;;;;;;;;;;;;;;4.70;32.25;102372.75;4443799;32;19989;-72
2022/03/20 04:24:07;;;;;;;;;;;;;;;4.80;32.04;102375.28;4443962;32;20315;-72
2022/03/20 04:26:34;;;;;;;;;;;;;;;4.79;32.17;102369.25;4444265;32;20520;-73
2022/03/20 04:29:01;;;;;;;;;;;;;;;4.91;32.03;102374.44;4443189;32;19981;-71
2022/03/20 04:31:28;;;;;;;;;;;;;;;4.98;31.92;102375.81;4427850;32;20032;-70
2022/03/20 04:33:56;;;;;;;;;;;;;;;4.90;32.14;102382.91;4442525;32;19977;-72
2022/03/20 04:36:27;;;;;;;;;;;;;;;4.94;32.01;102384.94;4444169;32;19992;-71
2022/03/20 04:38:55;;;;;;;;;;;;;;;4.90;32.17;102388.06;4443617;32;19974;-75
2022/03/20 04:41:22;;;;;;;;;;;;;;;5.02;32.00;102394.16;4442686;32;19993;-71
2022/03/20 04:43:50;;;;;;;;;;;;;;;5.00;32.09;102399.94;4442563;32;19982;-71
2022/03/20 04:46:17;;;;;;;;;;;;;;;5.00;32.14;102394.81;4444005;32;19996;-72
2022/03/20 04:59:47;;;;;;;;;;;;;;;4.94;32.54;102415.75;4430355;32;20017;-71
2022/03/20 05:02:14;;;;;;;;;;;;;;;4.91;32.57;102420.63;4443272;32;19993;-72
2022/03/20 05:04:41;;;;;;;;;;;;;;;5.02;32.33;102424.97;4428831;32;20087;-71
2022/03/20 05:07:08;;;;;;;;;;;;;;;5.06;32.34;102421.88;4442588;32;20311;-73
2022/03/20 05:15:08;;;;;;;;;;;;;;;4.95;32.88;102421.81;4441796;32;20778;-71
2022/03/20 05:17:35;;;;;;;;;;;;;;;4.90;33.18;102429.13;4443343;32;20025;-72
2022/03/20 05:20:03;;;;;;;;;;;;;;;5.01;33.11;102423.19;4442728;32;20019;-71
2022/03/20 05:22:32;;;;;;;;;;;;;;;5.07;33.84;102433.94;4443335;32;19996;-72
2022/03/20 05:24:58;;;;;;;;;;;;;;;5.19;33.13;102443.37;4443141;32;19985;-73
2022/03/20 05:27:25;;;;;;;;;;;;;;;5.33;32.58;102450.53;4441384;32;19996;-71
2022/03/20 05:29:52;;;;;;;;;;;;;;;5.44;32.31;102441.97;4442946;32;19992;-74
2022/03/20 05:32:20;;;;;;;;;;;;;;;5.45;32.45;102459.19;4443165;32;19981;-71
2022/03/20 05:34:47;;;;;;;;;;;;;;;5.68;31.83;102452.38;4443205;32;19988;-71
2022/03/20 05:37:14;;;;;;;;;;;;;;;5.20;32.94;102455.44;4443311;32;19997;-70
2022/03/20 05:39:41;;;;;;;;;;;;;;;5.69;32.29;102449.94;4443235;32;19988;-72
2022/03/20 05:42:08;;;;;;;;;;;;;;;5.71;32.42;102453.53;4441657;32;19981;-73
2022/03/20 05:44:35;;;;;;;;;;;;;;;5.81;31.95;102460.28;4443158;32;20356;-72
2022/03/20 05:47:01;;;;;;;;;;;;;;;4.95;33.30;102463.75;4442225;32;20070;-73
2022/03/20 05:49:28;;;;;;;;;;;;;;;5.85;32.26;102463.97;4442874;32;19973;-71
2022/03/20 05:51:55;;;;;;;;;;;;;;;6.21;32.19;102465.91;4443626;32;20361;-71
2022/03/20 05:54:22;;;;;;;;;;;;;;;6.28;31.44;102463.03;4444705;32;19981;-70
2022/03/20 05:59:36;;;;;;;;;;;;;;;6.51;31.37;102470.81;4445410;32;20945;-71
2022/03/20 06:02:03;;;;;;;;;;;;;;;6.69;31.22;102470.37;4443296;32;19993;-71
2022/03/20 06:04:31;;;;;;;;;;;;;;;6.69;31.47;102465.22;4442187;32;20025;-73
2022/03/20 06:06:59;;;;;;;;;;;;;;;6.87;31.27;102471.75;4436918;32;20044;-73
2022/03/20 06:09:26;;;;;;;;;;;;;;;6.85;30.98;102473.28;4423534;32;20019;-74
2022/03/20 06:11:53;;;;;;;;;;;;;;;7.02;30.68;102486.50;4444577;32;20087;-72
2022/03/20 06:14:20;;;;;;;;;;;;;;;7.18;30.09;102480.03;4445565;32;20026;-71
2022/03/20 06:16:50;;;;;;;;;;;;;;;7.45;29.59;102481.09;4443586;32;19977;-71
2022/03/20 06:19:17;;;;;;;;;;;;;;;7.48;29.58;102489.84;4444976;32;20834;-71
2022/03/20 06:21:44;;;;;;;;;;;;;;;7.36;29.78;102495.88;4417569;32;20843;-74
2022/03/20 06:24:11;;;;;;;;;;;;;;;7.48;29.89;102495.00;4445281;32;20007;-71
2022/03/20 06:26:38;;;;;;;;;;;;;;;7.40;29.56;102500.50;4444680;32;20005;-71
2022/03/20 06:29:05;;;;;;;;;;;;;;;7.08;30.64;102507.56;4444616;32;20007;-72
2022/03/20 06:31:32;;;;;;;;;;;;;;;7.15;30.56;102504.66;4444733;32;20320;-75
2022/03/20 06:33:59;;;;;;;;;;;;;;;7.29;30.17;102498.81;4443729;32;19997;-75
2022/03/20 06:36:26;;;;;;;;;;;;;;;7.42;30.00;102501.47;4443264;32;19982;-77
2022/03/20 06:38:53;;;;;;;;;;;;;;;7.04;30.56;102510.69;4438426;32;20636;-73
2022/03/20 06:41:20;;;;;;;;;;;;;;;7.18;29.58;102515.19;4423709;32;20053;-72
2022/03/20 06:43:47;;;;;;;;;;;;;;;7.09;30.09;102514.53;4434809;32;19996;-76
2022/03/20 06:46:14;;;;;;;;;;;;;;;7.13;30.54;102521.69;4422163;32;20351;-76
2022/03/20 06:48:57;;;;;;;;;;;;;;;7.50;30.08;102524.31;4441463;32;19973;-71
2022/03/20 06:51:23;;;;;;;;;;;;;;;7.36;29.26;102523.34;4436276;32;20032;-72
2022/03/20 06:53:51;;;;;;;;;;;;;;;7.37;29.37;102523.47;4432355;32;19989;-74
2022/03/20 06:56:18;;;;;;;;;;;;;;;7.41;29.25;102530.63;4439581;32;19989;-74
2022/03/20 06:58:44;;;;;;;;;;;;;;;7.36;28.86;102537.12;4443720;32;19980;-75
2022/03/20 07:01:11;;;;;;;;;;;;;;;8.13;29.03;102527.06;4444442;32;19989;-72
2022/03/20 07:03:39;;;;;;;;;;;;;;;8.58;27.96;102524.19;4443875;32;20038;-76
2022/03/20 07:06:05;;;;;;;;;;;;;;;8.88;27.21;102533.88;4444034;32;19985;-76
2022/03/20 07:08:32;;;;;;;;;;;;;;;9.01;27.64;102536.47;4442881;32;20034;-72
2022/03/20 07:10:59;;;;;;;;;;;;;;;9.42;26.90;102533.09;4444442;32;20251;-72
2022/03/20 07:16:15;;;;;;;;;;;;;;;9.11;26.89;102544.03;4444643;32;19981;-73
2022/03/20 07:18:42;;;;;;;;;;;;;;;9.50;26.27;102544.81;4443953;32;19981;-70
2022/03/20 07:21:09;;;;;;;;;;;;;;;9.52;26.04;102553.56;4442328;32;20026;-71
2022/03/20 07:23:37;;;;;;;;;;;;;;;9.62;25.86;102555.94;4444752;32;19982;-73
2022/03/20 07:31:35;;;;;;;;;;;;;;;9.32;26.40;102560.94;4444473;32;19981;-69
2022/03/20 07:34:02;;;;;;;;;;;;;;;9.70;26.21;102559.94;4444143;32;20109;-71
2022/03/20 07:36:29;;;;;;;;;;;;;;;9.85;26.07;102559.09;4444519;32;19985;-71
2022/03/20 07:38:55;;;;;;;;;;;;;;;10.05;25.42;102552.56;4444286;32;20026;-71
2022/03/20 07:41:22;;;;;;;;;;;;;;;10.23;24.98;102558.87;4444092;32;19996;-70
2022/03/20 07:43:50;;;;;;;;;;;;;;;9.94;25.00;102557.97;4443748;32;19997;-70
2022/03/20 07:46:16;;;;;;;;;;;;;;;10.18;24.98;102561.19;4444677;32;20887;-71
2022/03/20 07:48:43;;;;;;;;;;;;;;;10.24;24.79;102556.38;4443172;32;19969;-70
2022/03/20 07:51:10;;;;;;;;;;;;;;;10.82;24.99;102552.94;4443906;32;19985;-70
2022/03/20 07:53:37;;;;;;;;;;;;;;;10.45;24.31;102559.41;4441419;32;20000;-71
2022/03/20 07:56:04;;;;;;;;;;;;;;;10.95;24.48;102545.06;4452566;32;20404;-71
2022/03/20 07:58:30;;;;;;;;;;;;;;;10.20;25.00;102559.56;4369110;32;20013;-70
2022/03/20 08:00:58;;;;;;;;;;;;;;;10.41;24.67;102559.13;4407200;32;19989;-71
2022/03/20 08:03:25;;;;;;;;;;;;;;;10.94;24.61;102558.81;4444049;32;20030;-70
2022/03/20 08:05:52;;;;;;;;;;;;;;;11.08;23.68;102555.34;4443825;32;20315;-70
2022/03/20 08:08:19;;;;;;;;;;;;;;;11.14;24.19;102555.69;4429368;32;19981;-71
2022/03/20 08:10:46;;;;;;;;;;;;;;;11.05;24.72;102562.94;4442786;32;19981;-70
2022/03/20 08:13:12;;;;;;;;;;;;;;;11.04;24.01;102561.16;4444076;32;20030;-70
2022/03/20 08:15:40;;;;;;;;;;;;;;;11.27;23.41;102564.19;4443118;32;20004;-70
2022/03/20 08:18:07;;;;;;;;;;;;;;;11.20;23.49;102560.34;4103138;32;10003751;-71
2022/03/20 08:20:35;;;;;;;;;;;;;;;11.20;23.61;102556.81;4428761;32;19993;-72
2022/03/20 08:23:03;;;;;;;;;;;;;;;10.80;24.56;102559.72;4411681;32;19986;-73
2022/03/20 08:25:31;;;;;;;;;;;;;;;10.37;25.11;102557.12;4428621;32;20038;-71
2022/03/20 08:27:58;;;;;;;;;;;;;;;10.35;25.32;102558.75;4427629;32;19981;-71
2022/03/20 08:30:24;;;;;;;;;;;;;;;10.91;24.18;102556.03;4428353;32;19969;-71
2022/03/20 08:32:52;;;;;;;;;;;;;;;11.27;24.89;102543.44;4426186;32;20329;-71
2022/03/20 08:35:19;;;;;;;;;;;;;;;11.16;24.08;102543.69;4413645;32;19993;-71
2022/03/20 08:37:48;;;;;;;;;;;;;;;11.93;23.17;102540.19;4428037;32;20034;-70
2022/03/20 08:40:16;;;;;;;;;;;;;;;12.13;22.93;102535.19;4427670;32;19996;-71
2022/03/20 08:42:47;;;;;;;;;;;;;;;11.79;22.86;102535.94;4426436;32;19990;-72
2022/03/20 08:45:14;;;;;;;;;;;;;;;12.00;23.69;102547.53;4427651;32;20351;-72
2022/03/20 08:47:44;;;;;;;;;;;;;;;12.17;23.51;102544.94;4417541;32;19986;-69
2022/03/20 08:50:13;;;;;;;;;;;;;;;12.03;21.59;102546.81;4436938;32;20003;-69
2022/03/20 08:52:41;;;;;;;;;;;;;;;11.75;22.39;102544.38;4442443;32;20016;-69
2022/03/20 08:55:11;;;;;;;;;;;;;;;11.65;22.13;102548.16;4429965;32;19989;-69
2022/03/20 08:57:41;;;;;;;;;;;;;;;10.99;22.88;102554.81;4443083;32;20007;-71
2022/03/20 09:00:09;;;;;;;;;;;;;;;11.14;23.02;102547.91;4443275;32;19977;-71
2022/03/20 09:02:36;;;;;;;;;;;;;;;11.10;24.51;102545.97;4443243;32;19985;-70
2022/03/20 09:05:03;;;;;;;;;;;;;;;11.58;22.62;102546.94;4443600;32;20312;-70
2022/03/20 09:07:30;;;;;;;;;;;;;;;11.22;22.97;102544.84;4443486;32;19977;-69
2022/03/20 09:09:58;;;;;;;;;;;;;;;11.32;22.46;102541.97;4443325;32;19972;-69
2022/03/20 09:12:24;;;;;;;;;;;;;;;11.43;23.19;102546.09;4442310;32;19990;-72
2022/03/20 09:14:53;;;;;;;;;;;;;;;11.05;23.78;102539.59;4429262;32;20076;-71
2022/03/20 09:20:06;;;;;;;;;;;;;;;12.09;22.12;102537.63;4443345;32;20019;-70
2022/03/20 09:22:34;;;;;;;;;;;;;;;12.23;21.79;102529.69;4443428;32;19985;-71
2022/03/20 09:25:01;;;;;;;;;;;;;;;12.28;21.45;102529.13;4429303;32;19993;-72
2022/03/20 09:27:28;;;;;;;;;;;;;;;12.40;20.89;102528.84;4444900;32;20031;-70
2022/03/20 09:29:55;;;;;;;;;;;;;;;12.02;21.31;102521.63;4444920;32;19981;-72
2022/03/20 09:32:23;;;;;;;;;;;;;;;12.03;21.43;102519.13;4445123;32;19981;-70
2022/03/20 09:34:50;;;;;;;;;;;;;;;12.08;21.35;102515.06;4445387;32;19993;-73
2022/03/20 09:37:17;;;;;;;;;;;;;;;12.04;21.37;102518.31;4443815;32;20003;-71
2022/03/20 09:39:44;;;;;;;;;;;;;;;12.26;22.13;102511.66;4445017;32;20827;-71
2022/03/20 09:42:11;;;;;;;;;;;;;;;11.92;22.70;102512.47;4445280;32;19981;-72
2022/03/20 09:44:38;;;;;;;;;;;;;;;12.17;21.49;102516.38;4445459;32;20060;-71
2022/03/20 09:47:12;;;;;;;;;;;;;;;12.39;21.71;102510.59;4430539;32;19985;-71
2022/03/20 09:49:39;;;;;;;;;;;;;;;12.26;21.72;102520.34;4444987;32;20251;-72
2022/03/20 09:52:06;;;;;;;;;;;;;;;12.41;21.33;102515.06;4444352;32;20029;-78
2022/03/20 09:54:34;;;;;;;;;;;;;;;11.70;22.54;102519.88;4444669;32;20158;-77
2022/03/20 09:57:02;;;;;;;;;;;;;;;11.57;21.87;102520.91;4445076;32;19977;-76
2022/03/20 09:59:28;;;;;;;;;;;;;;;11.80;21.83;102517.84;4443720;32;20014;-73
2022/03/20 10:02:00;;;;;;;;;;;;;;;12.28;21.32;102512.63;4456220;32;20361;-73
2022/03/20 10:04:27;;;;;;;;;;;;;;;12.28;21.46;102512.63;4444830;32;19981;-72
2022/03/20 10:06:54;;;;;;;;;;;;;;;12.09;22.65;102511.66;4444650;32;20376;-75
2022/03/20 10:09:23;;;;;;;;;;;;;;;12.17;21.34;102509.47;4455475;32;20014;-73
2022/03/20 10:11:51;;;;;;;;;;;;;;;12.24;21.40;102502.88;4456586;32;20005;-70
2022/03/20 10:14:19;;;;;;;;;;;;;;;12.71;20.50;102499.22;4444936;32;20095;-76
2022/03/20 10:16:54;;;;;;;;;;;;;;;12.66;20.77;102496.38;4442021;32;19994;-75
2022/03/20 10:19:24;;;;;;;;;;;;;;;13.02;20.43;102501.66;4456558;32;20455;-74
2022/03/20 10:22:15;;;;;;;;;;;;;;;12.97;20.75;102493.59;4444906;32;19994;-71
2022/03/20 10:24:47;;;;;;;;;;;;;;;12.34;21.31;102502.53;4437202;32;19980;-71
2022/03/20 10:27:14;;;;;;;;;;;;;;;11.70;21.40;102497.41;4409955;32;20905;-71
2022/03/20 10:29:55;;;;;;;;;;;;;;;12.32;21.25;102489.50;4444180;32;19977;-75
2022/03/20 10:32:22;;;;;;;;;;;;;;;12.29;21.15;102485.84;4442517;32;20023;-74
2022/03/20 10:34:49;;;;;;;;;;;;;;;12.47;21.11;102478.97;4430256;32;20019;-72
2022/03/20 10:37:17;;;;;;;;;;;;;;;12.45;22.01;102496.22;4443767;32;20001;-70
2022/03/20 10:39:44;;;;;;;;;;;;;;;12.43;21.03;102486.53;4441469;32;20029;-70
2022/03/20 10:42:14;;;;;;;;;;;;;;;12.30;21.70;102485.03;4442818;32;20334;-71
2022/03/20 10:44:41;;;;;;;;;;;;;;;12.63;20.53;102490.16;4445087;32;20311;-70
2022/03/20 10:47:12;;;;;;;;;;;;;;;12.30;21.21;102488.50;4443790;32;19981;-70
2022/03/20 10:49:40;;;;;;;;;;;;;;;12.34;21.75;102481.75;4444839;32;20076;-71
2022/03/20 10:52:10;;;;;;;;;;;;;;;12.55;21.30;102477.66;4444986;32;20472;-70
2022/03/20 10:54:41;;;;;;;;;;;;;;;12.18;21.15;102479.19;4443197;32;19985;-71
2022/03/20 10:57:09;;;;;;;;;;;;;;;12.62;20.94;102477.97;4443191;32;19989;-71
2022/03/20 10:59:36;;;;;;;;;;;;;;;12.86;21.73;102468.81;4436568;32;20317;-71
2022/03/20 11:02:05;;;;;;;;;;;;;;;13.19;20.69;102468.66;4443696;32;19985;-71
2022/03/20 11:04:33;;;;;;;;;;;;;;;13.08;20.07;102464.63;4442801;32;19997;-73
2022/03/20 11:07:00;;;;;;;;;;;;;;;12.86;20.51;102468.81;4438606;32;20031;-71
2022/03/20 11:09:27;;;;;;;;;;;;;;;12.89;20.65;102466.34;4426067;32;20812;-70
2022/03/20 11:11:57;;;;;;;;;;;;;;;12.76;20.47;102456.16;4437933;32;19982;-70
2022/03/20 11:14:26;;;;;;;;;;;;;;;12.18;20.59;102455.81;4444610;32;20304;-70
2022/03/20 11:16:56;;;;;;;;;;;;;;;12.22;20.44;102455.16;4430907;32;19981;-70
2022/03/20 11:19:23;;;;;;;;;;;;;;;12.82;20.39;102446.06;4442724;32;19995;-72
2022/03/20 11:21:52;;;;;;;;;;;;;;;13.01;20.37;102438.31;4427928;32;19974;-70
2022/03/20 11:24:20;;;;;;;;;;;;;;;13.47;19.56;102437.94;4415075;32;19989;-70
2022/03/20 11:26:50;;;;;;;;;;;;;;;13.54;19.13;102441.69;4415353;32;20020;-70
2022/03/20 11:29:19;;;;;;;;;;;;;;;13.55;19.62;102442.59;4442454;32;20339;-72
2022/03/20 11:31:46;;;;;;;;;;;;;;;13.52;19.15;102438.12;4430526;32;19974;-80
2022/03/20 11:34:13;;;;;;;;;;;;;;;13.36;19.61;102431.31;4430845;32;19988;-75
2022/03/20 11:36:59;;;;;;;;;;;;;;;13.31;19.64;102432.84;4444375;32;19985;-74
2022/03/20 11:39:26;;;;;;;;;;;;;;;13.15;19.71;102414.72;4444540;32;19977;-70
2022/03/20 11:42:11;;;;;;;;;;;;;;;13.73;19.30;102407.88;4444567;32;20040;-70
2022/03/20 11:44:50;;;;;;;;;;;;;;;14.07;18.31;102413.66;4444742;32;20345;-70
2022/03/20 11:47:17;;;;;;;;;;;;;;;13.88;18.39;102407.66;4443115;32;19981;-68
2022/03/20 11:49:44;;;;;;;;;;;;;;;13.92;18.39;102399.16;4443072;32;19981;-70
2022/03/20 11:52:13;;;;;;;;;;;;;;;13.85;18.60;102386.69;4442395;32;20062;-70
2022/03/20 11:54:40;;;;;;;;;;;;;;;14.07;18.05;102395.41;4444192;32;20005;-72
2022/03/20 11:57:25;;;;;;;;;;;;;;;13.79;18.59;102395.97;4443477;32;19977;-68
2022/03/20 11:59:54;;;;;;;;;;;;;;;13.33;19.09;102393.88;4444792;32;20285;-69
2022/03/20 12:02:48;;;;;;;;;;;;;;;13.11;18.98;102386.75;4443108;32;20402;-72
2022/03/20 12:05:18;;;;;;;;;;;;;;;12.86;19.58;102379.50;4426561;32;19993;-71
2022/03/20 12:08:00;;;;;;;;;;;;;;;13.34;18.94;102380.97;4429927;32;20409;-75
2022/03/20 12:10:30;;;;;;;;;;;;;;;13.55;18.55;102369.72;4429033;32;19993;-72
2022/03/20 12:13:06;;;;;;;;;;;;;;;13.17;19.63;102376.63;4415169;32;20033;-74
2022/03/20 12:15:40;;;;;;;;;;;;;;;13.53;19.10;102377.47;4432524;32;20008;-73
2022/03/20 12:18:10;;;;;;;;;;;;;;;13.75;18.89;102374.09;4429630;32;20048;-71
2022/03/20 12:21:03;;;;;;;;;;;;;;;13.55;18.51;102370.59;4430033;32;19984;-70
2022/03/20 12:23:32;;;;;;;;;;;;;;;13.22;18.21;102372.56;4441189;32;20330;-71
2022/03/20 12:26:19;;;;;;;;;;;;;;;13.61;18.30;102372.59;4441927;32;20463;-71
2022/03/20 12:28:46;;;;;;;;;;;;;;;13.55;18.34;102374.94;4444067;32;19989;-72
2022/03/20 12:31:23;;;;;;;;;;;;;;;13.23;18.65;102371.72;4424725;32;20009;-70
2022/03/20 12:34:09;;;;;;;;;;;;;;;13.17;18.58;102368.84;4443835;32;19994;-70
2022/03/20 12:36:36;;;;;;;;;;;;;;;13.65;17.59;102366.69;4443336;32;19999;-69
2022/03/20 12:39:03;;;;;;;;;;;;;;;13.39;18.14;102358.63;4439311;32;20012;-69
2022/03/20 12:41:30;;;;;;;;;;;;;;;12.60;18.86;102363.56;4416299;32;20733;-71
2022/03/20 12:44:00;;;;;;;;;;;;;;;11.96;19.20;102362.97;4442217;32;20358;-74
2022/03/20 12:46:27;;;;;;;;;;;;;;;12.40;19.23;102357.41;4434149;32;20777;-73
2022/03/20 12:48:54;;;;;;;;;;;;;;;12.72;19.48;102350.28;4438572;32;19989;-72
2022/03/20 12:51:40;;;;;;;;;;;;;;;12.98;19.03;102365.37;4435776;32;19989;-73
2022/03/20 12:54:10;;;;;;;;;;;;;;;12.54;18.75;102356.38;4415902;32;19986;-73
2022/03/20 12:56:59;;;;;;;;;;;;;;;12.87;19.11;102345.81;4423441;32;20651;-73
2022/03/20 12:59:25;;;;;;;;;;;;;;;12.66;18.69;102355.16;4410974;32;20400;-73
2022/03/20 13:01:53;;;;;;;;;;;;;;;12.26;19.33;102342.84;4421363;32;20001;-72
2022/03/20 13:04:20;;;;;;;;;;;;;;;12.24;19.75;102339.28;4438057;32;19985;-74
2022/03/20 13:06:48;;;;;;;;;;;;;;;12.40;19.32;102344.41;4435360;32;20020;-73
2022/03/20 13:09:16;;;;;;;;;;;;;;;11.98;19.09;102331.09;4423481;32;19956;-78
2022/03/20 13:11:51;;;;;;;;;;;;;;;12.45;19.83;102329.06;4439474;32;19989;-74
2022/03/20 13:14:21;;;;;;;;;;;;;;;12.74;18.74;102327.84;4434391;32;20386;-75
2022/03/20 13:16:50;;;;;;;;;;;;;;;12.58;19.04;102326.25;4435827;32;20845;-77
2022/03/20 13:19:25;;;;;;;;;;;;;;;12.75;18.96;102322.72;4439457;32;20408;-75
2022/03/20 13:21:52;;;;;;;;;;;;;;;12.91;18.43;102324.31;4439687;32;19974;-72
2022/03/20 13:24:29;;;;;;;;;;;;;;;13.02;18.50;102309.22;4433918;32;20518;-72
2022/03/20 13:26:57;;;;;;;;;;;;;;;13.02;18.21;102312.72;4433907;32;19993;-69
2022/03/20 13:29:24;;;;;;;;;;;;;;;13.04;18.41;102324.06;4439643;32;21191;-72